Weather observations for the past three days for
La Grange, Fayette Regional Air Center Airport
Metric (Imperial)
Date Time (cdt) Wind (kph) Vis. (km) Weather Sky Cond. Temperature (ºC) Relative Humidity Wind Chill (°C) Heat Index (°C) Pressure Precipitation (cm)
Air Dwpt 6 hour altimeter (cm) sea level (mb) 1 hr 3 hr 6 hr
Max. Min.
04 08:35 S 11 16.09 Fair CLR 19.9 16.1 79% 76.17 0.0
04 08:15 S 9 16.09 Partly Cloudy SCT200 18.2 15.3 83% 76.17 0.0
04 07:55 Calm 16.09 Mostly Cloudy BKN200 16.2 14.5 90% 76.17 0.0
04 07:35 Calm 16.09 Partly Cloudy SCT200 15.5 14.2 92% 76.15 0.0
04 07:15 Calm 16.09 Mostly Cloudy BKN210 14.9 13.6 92% 76.12 0.0
04 06:55 Calm 16.09 Partly Cloudy SCT210 14.2 13.4 18 14.2 95% 76.12 0.0
04 06:35 S 6 16.09 Fair CLR 14.2 13.4 95% 76.12 0.0
04 06:15 S 7 16.09 Fair CLR 14.3 13.3 94% 76.12 0.0
04 05:55 S 6 16.09 Fair CLR 14.5 13.3 93% 76.15 0.0
04 05:35 S 6 16.09 Fair CLR 14.6 13.1 91% 76.12 0.0
04 05:15 Calm 16.09 Fair CLR 15.2 13.2 88% 76.15 0.0
04 04:55 SE 6 16.09 Fair CLR 15.6 13.2 86% 76.15 0.0
04 04:35 S 9 16.09 Fair CLR 15.2 13.3 89% 76.12 0.0
04 04:15 S 9 16.09 Fair CLR 15.3 13.3 88% 76.15 0.0
04 03:55 SE 9 16.09 Fair CLR 15.8 13.5 86% 76.17 0.0
04 03:35 S 7 16.09 Fair CLR 16.1 13.3 84% 76.2 0.0
04 03:15 S 9 16.09 Fair CLR 16.5 13.4 82% 76.2 0.0
04 02:55 S 9 16.09 Fair CLR 16.9 13.3 79% 76.2 0.0
04 02:35 S 11 16.09 Fair CLR 17.1 13.4 79% 76.23 0.0
04 02:15 S 13 16.09 Fair CLR 17.5 13.6 78% 76.28 0.0
04 01:55 S 15 16.09 Fair CLR 17.6 13.7 78% 76.3 0.0
04 01:35 S 15 16.09 Fair CLR 17.8 13.6 77% 76.3 0.0
04 01:15 S 15 16.09 Fair CLR 17.9 13.7 77% 76.33 0.0
04 00:55 S 11 16.09 Fair CLR 17.9 13.6 24.8 17.8 76% 76.35 0.0
04 00:35 S 13 16.09 Fair CLR 17.9 13.6 76% 76.33 0.0
04 00:15 S 11 16.09 Fair CLR 18 13.6 76% 76.35 0.0
03 23:55 S 15 16.09 A Few Clouds FEW240 18.2 13.5 74% 76.35 0.0
03 23:35 S 13 16.09 Partly Cloudy SCT240 SCT260 18.2 13.5 74% 76.38 0.0
03 23:15 S 11 16.09 Partly Cloudy SCT250 18.3 13.3 73% 76.38 0.0
03 22:55 S 13 16.09 Fair CLR 18.6 13.1 71% 76.38 0.0
03 22:35 S 15 16.09 Fair CLR 19 13.1 69% 76.38 0.0
03 22:15 S 13 16.09 Fair CLR 19 13.4 70% 76.38 0.0
03 21:55 S 11 16.09 Partly Cloudy SCT250 19.5 13.5 68% 76.38 0.0
03 21:35 S 15 16.09 Mostly Cloudy BKN250 20 13.4 66% 76.35 0.0
03 21:15 SE 15 16.09 Partly Cloudy SCT250 20.3 13.9 67% 76.33 0.0
03 20:55 SE 11 16.09 Fair CLR 20.6 12.5 60% 76.33 0.0
03 20:35 SE 11 16.09 Fair CLR 21.2 10.6 51% 76.3 0.0
03 20:15 Calm 16.09 Fair CLR 21 10.4 51% 76.28 0.0
03 19:55 SE 7 16.09 Fair CLR 22.3 8.4 41% 76.3 0.0
03 19:35 SE 7 16.09 Fair CLR 23.4 6.5 34% 76.3 0.0
03 19:15 SE 11 16.09 Fair CLR 24.4 5.8 30% 25 76.3 0.0
03 18:55 S 11 16.09 Fair CLR 24.3 6.1 26.6 24.3 31% 25 76.33 0.0
03 18:35 SE 11 16.09 Fair CLR 24.9 6.1 30% 25 76.33 0.0
03 18:15 SE 15 16.09 Fair CLR 24.8 4.7 27% 25 76.33 0.0
03 17:55 SE 13 16.09 Fair CLR 25.6 4.9 26% 26 76.35 0.0
03 17:35 SE 13 16.09 Fair CLR 25.7 5.1 27% 26 76.38 0.0
03 17:15 Vrbl 9 16.09 Fair CLR 26 4.9 26% 26 76.38 0.0
03 16:55 S 13 16.09 Fair CLR 26.2 5 26% 26 76.4 0.0
03 16:35 Vrbl 9 16.09 Fair CLR 26.1 3.9 24% 26 76.43 0.0
03 16:15 S 13 16.09 Fair CLR 26 4.1 24% 26 76.45 0.0
03 15:55 SE 11 16.09 A Few Clouds FEW080 25.9 4.4 25% 26 76.48 0.0
03 15:35 SE 17 16.09 Mostly Cloudy BKN075 26.3 4 24% 26 76.48 0.0
03 15:15 S 11 16.09 Partly Cloudy SCT070 25.7 4.8 26% 26 76.5 0.0
03 14:55 SE 17 16.09 Partly Cloudy SCT070 24.5 5.8 30% 25 76.53 0.0
03 13:55 S 20 G 28 16.09 A Few Clouds FEW350 25.3 6.8 31% 26 76.61 0.0
03 13:35 S 11 16.09 A Few Clouds FEW350 25 6.1 30% 25 76.63 0.0
03 13:15 S 19 16.09 A Few Clouds FEW300 25.1 5.2 28% 25 76.66 0.0
03 12:55 S 13 16.09 Fair CLR 24.8 5.1 24.9 11 28% 25 76.68 0.0
03 12:35 S 15 16.09 Fair CLR 24.7 5 28% 25 76.71 0.0
03 12:15 SE 19 16.09 Fair CLR 24.4 4.5 28% 25 76.73 0.0
03 11:55 S 13 16.09 Fair CLR 23.9 6 32% 25 76.73 0.0
03 11:35 Vrbl 9 16.09 Fair CLR 24 7.8 36% 25 76.76 0.0
03 11:15 S 6 16.09 Fair CLR 23 9.9 44% 76.76 0.0
03 10:55 S 13 16.09 Fair CLR 23 12.6 52% 76.76 0.0
03 10:35 SE 9 16.09 Fair CLR 22.5 12.7 54% 76.76 0.0
03 10:15 Vrbl 6 16.09 Fair CLR 21.3 15.8 71% 76.76 0.0
03 09:55 Calm 16.09 Fair CLR 20.1 14.4 70% 76.73 0.0
03 09:35 SW 7 14.48 Fair CLR 19.6 14.3 72% 76.73 0.0
03 09:15 SW 6 16.09 Fair CLR 18.3 15.1 82% 76.71 0.0
03 08:55 Calm 16.09 Fair CLR 16.3 15.3 94% 76.73 0.0
03 08:35 Calm 14.48 Fair CLR 15.4 15.4 100% 76.73 0.0
03 08:15 Calm 16.09 Fair CLR 14 14 100% 76.71 0.0
03 07:55 Calm 16.09 Fair CLR 13 13 100% 76.71 0.0
03 07:35 Calm 16.09 Fair CLR 12.2 12.2 100% 76.68 0.0
03 07:15 Calm 16.09 Fair CLR 11.4 11.4 100% 76.68 0.0
03 06:55 Calm 16.09 Fair CLR 10.9 10.9 13.5 10.9 100% 76.66 0.0
03 06:35 Calm 16.09 Fair CLR 11.4 11.4 100% 76.66 0.0
03 06:15 Calm 16.09 Fair CLR 11.3 11.3 100% 76.63 0.0
03 05:55 Calm 16.09 Fair CLR 11.4 11.4 100% 76.61 0.0
03 05:35 Calm 16.09 Fair CLR 11.5 11.5 100% 76.61 0.0
03 05:15 Calm 16.09 Fair CLR 11.8 11.8 100% 76.61 0.0
03 04:55 Calm 16.09 Fair CLR 11.9 11.8 99% 76.61 0.0
03 04:35 Calm 16.09 Fair CLR 11.9 11.9 100% 76.61 0.0
03 04:15 Calm 16.09 Fair CLR 12.2 12.2 100% 76.61 0.0
03 03:55 Calm 16.09 Fair CLR 12.4 12.4 100% 76.61 0.0
03 03:35 Calm 16.09 Fair CLR 12.5 12.5 100% 76.58 0.0
03 03:15 Calm 16.09 Fair CLR 12.7 12.7 100% 76.58 0.0
03 02:55 Calm 16.09 Fair CLR 12.8 12.8 100% 76.61 0.0
03 02:35 Calm 16.09 Fair CLR 12.6 12.6 100% 76.61 0.0
03 02:15 Calm 14.48 Fair CLR 12.8 12.8 100% 76.63 0.0
03 01:55 Calm 16.09 Fair CLR 12.8 12.8 100% 76.63 0.0
03 01:35 Calm 16.09 Fair CLR 13 13 100% 76.63 0.0
03 01:15 Calm 16.09 Fair CLR 13.2 13.2 100% 76.63 0.0
03 00:55 Calm 16.09 Fair CLR 13.5 13.5 22.8 13.4 100% 76.63 0.0
03 00:35 Calm 16.09 Fair CLR 13.6 13.6 100% 76.63 0.0
03 00:15 Calm 16.09 Fair CLR 13.8 13.7 99% 76.63 0.0
02 23:55 Calm 16.09 Fair CLR 14.1 14 99% 76.63 0.0
02 23:35 Calm 16.09 Fair CLR 14.2 14.2 100% 76.61 0.0
02 23:15 Calm 16.09 Fair CLR 14.5 14.3 99% 76.61 0.0
02 22:55 Calm 16.09 Fair CLR 14.8 14.6 99% 76.58 0.0
02 22:35 Calm 16.09 Fair CLR 15.4 14.7 96% 76.58 0.0
02 22:15 Calm 16.09 Fair CLR 15.6 14.5 93% 76.58 0.0
02 21:55 Calm 16.09 Fair CLR 16.1 14.1 88% 76.56 0.0
02 21:35 Calm 16.09 Fair CLR 16.1 14 87% 76.53 0.0
02 21:15 Calm 16.09 Fair CLR 16.6 15.1 91% 76.53 0.0
02 20:55 Calm 16.09 Fair CLR 17.4 14 81% 76.5 0.0
02 20:35 Calm 14.48 Fair CLR 17.9 14.9 83% 76.5 0.0
02 20:15 Calm 12.87 Fair CLR 18.9 14.7 77% 76.5 0.0
02 19:55 Calm 12.87 Fair CLR 21.6 9.6 46% 76.48 0.0
02 19:35 NE 6 16.09 Fair CLR 22.1 8.4 42% 76.45 0.0
02 19:15 NE 6 16.09 Fair CLR 22.5 7.9 39% 76.48 0.0
02 18:55 Vrbl 7 16.09 Fair CLR 23.1 6.9 23.9 20.5 35% 76.45 0.0
02 18:35 NE 13 16.09 Fair CLR 23.1 5.9 33% 76.45 0.0
02 18:15 NE 11 16.09 Fair CLR 23.5 6.7 34% 76.43 0.0
02 17:55 N 13 16.09 Fair CLR 23.6 5.8 32% 76.43 0.0
02 17:35 NE 13 16.09 Fair CLR 23.6 5.8 32% 76.45 0.0
02 17:15 N 11 16.09 Fair CLR 23.6 6.8 34% 76.45 0.0
02 16:55 NE 17 16.09 Fair CLR 23.6 6.8 34% 76.45 0.0
02 16:35 NE 13 16.09 Fair CLR 23.5 7.7 36% 76.45 0.0
02 16:15 N 17 16.09 Fair CLR 23.2 6.6 34% 76.48 0.0
02 15:55 Vrbl 9 16.09 A Few Clouds FEW055 23.1 8 38% 76.5 0.0
02 15:35 N 15 16.09 A Few Clouds FEW055 23 7.6 37% 76.53 0.0
02 15:15 N 13 16.09 A Few Clouds FEW055 22.7 7.8 38% 76.53 0.0
02 14:55 N 15 16.09 A Few Clouds FEW310 22.3 9 43% 76.56 0.0
02 14:35 Vrbl 11 16.09 A Few Clouds FEW050 22.2 8.2 41% 76.58 0.0
02 14:15 N 17 16.09 A Few Clouds FEW370 22 8.6 42% 76.58 0.0
02 13:55 N 13 16.09 A Few Clouds FEW049 21.6 9.4 46% 76.58 0.0
02 13:35 NE 19 G 26 16.09 Partly Cloudy SCT048 21.5 10.4 49% 76.61 0.0
02 13:15 N 15 16.09 Partly Cloudy SCT047 20.9 9.7 49% 76.63 0.0
02 12:55 Vrbl 9 16.09 A Few Clouds FEW049 21.1 10.4 21.1 10.1 51% 76.66 0.0
02 12:35 E 7 16.09 A Few Clouds FEW046 20.5 9.8 50% 76.68 0.0
02 12:15 NE 17 G 28 16.09 Fair CLR 20.5 9.6 50% 76.68 0.0
02 11:55 N 13 16.09 Fair CLR 19.8 10.5 55% 76.68 0.0
02 11:35 N 15 16.09 Fair CLR 19.5 11.3 59% 76.68 0.0
02 11:15 NE 15 G 28 16.09 A Few Clouds FEW380 18.8 11.3 62% 76.68 0.0
02 10:55 Vrbl 11 16.09 A Few Clouds FEW380 18 12.1 69% 76.68 0.0
02 10:35 N 15 16.09 Fair CLR 17.8 12.3 70% 76.66 0.0
02 10:15 N 15 16.09 Fair CLR 17.2 12.4 74% 76.66 0.0
02 09:55 N 15 16.09 Fair CLR 16.4 12.2 76% 76.66 0.0
02 09:35 NE 11 16.09 Fair CLR 15.7 12.3 80% 76.63 0.0
02 09:15 N 15 16.09 Fair CLR 15 12.1 83% 76.63 0.0
02 08:55 N 11 16.09 Fair CLR 13.9 12.4 91% 76.63 0.0
02 08:35 N 9 16.09 Fair CLR 13.2 12.2 94% 76.61 0.0
02 08:15 N 9 16.09 Fair CLR 12.5 12.2 98% 76.58 0.0
02 07:55 Calm 16.09 Fair CLR 11.2 11.2 100% 76.56 0.0
02 07:35 Calm 16.09 Fair CLR 10.9 10.9 100% 76.56 0.0
02 07:15 Calm 16.09 Fair CLR 10.3 10.3 100% 76.53 0.0
02 06:55 Calm 14.48 Fair CLR 10.3 10.3 11.8 10.3 100% 76.5 0.0
02 06:35 N 6 16.09 Fair CLR 10.4 10.4 100% 76.48 0.0
02 06:15 N 9 16.09 Fair CLR 10.5 10.5 100% 76.48 0.0
02 05:55 N 9 16.09 Fair CLR 10.6 10.6 100% 76.43 0.0
02 05:35 N 9 16.09 Fair CLR 10.7 10.7 100% 76.4 0.0
02 05:15 N 9 16.09 Fair CLR 10.7 10.7 100% 76.4 0.0
02 04:55 N 7 16.09 Fair CLR 10.7 10.7 100% 76.38 0.0
02 04:35 N 11 16.09 Fair CLR 10.7 10.7 100% 76.35 0.0
02 04:15 N 13 16.09 Fair CLR 10.6 10.6 100% 76.33 0.0
02 03:55 N 11 16.09 Fair CLR 10.6 10.6 100% 76.33 0.0
02 03:35 N 13 16.09 Fair CLR 10.7 10.7 100% 76.3 0.0
02 03:15 N 9 16.09 Fair CLR 10.8 10.8 100% 76.28 0.0
02 02:55 N 13 16.09 Fair CLR 10.9 10.9 100% 76.3 0.0
02 02:35 N 9 16.09 Fair CLR 10.9 10.9 100% 76.3 0.0
02 02:15 N 9 16.09 Fair CLR 11 11 100% 76.3 0.0
02 01:55 N 9 16.09 Fair CLR 11.2 11.2 100% 76.3 0.0
02 01:35 N 9 16.09 Fair CLR 11.3 11.3 100% 76.3 0.0
02 01:15 N 13 16.09 Partly Cloudy SCT012 11.5 11.5 100% 76.3 0.0
02 00:55 N 11 16.09 Mostly Cloudy BKN011 12 12 14.7 12 100% 76.33 0.0
02 00:35 N 15 16.09 Overcast OVC010 12.3 12.3 100% 76.3 0.0
02 00:15 N 20 16.09 Overcast OVC010 12.7 12.7 100% 76.3 0.0
01 23:55 N 17 16.09 Overcast BKN009 OVC014 13 13 100% 76.3 0.0
01 23:35 N 15 16.09 Overcast OVC013 12.9 12.9 100% 76.28 0.0
01 23:15 NE 19 16.09 Overcast OVC011 13 13 100% 76.28 0.0
01 22:55 N 19 16.09 Overcast OVC011 13.1 13.1 100% 76.25 0.0
01 22:35 N 19 16.09 Overcast OVC009 13.3 13.3 100% 76.25 0.0
01 22:15 N 9 16.09 Overcast OVC010 13.4 13.4 100% 76.25 0.0
01 21:55 N 15 16.09 Overcast BKN010 BKN016 OVC022 13.4 13.4 100% 76.2 0.0
01 21:35 N 13 16.09 Overcast SCT011 BKN020 OVC050 13.4 13.4 100% 76.2 0.0
01 21:15 N 19 16.09 Overcast BKN011 OVC017 13.3 13.3 100% 76.17 0.0
01 20:55 N 19 G 30 16.09 Overcast OVC010 13.4 13.4 100% 76.15 0.0
01 20:35 N 19 16.09 Overcast OVC010 13.5 13.5 100% 76.1 0.0
01 20:15 N 20 G 30 16.09 Overcast OVC009 13.6 13.6 100% 76.02 0.0
01 19:55 N 20 G 39 16.09 Overcast OVC009 14 14 100% 76.05 0.0
01 19:35 N 19 16.09 Overcast OVC009 14.3 14.3 100% 76.05 0.0
01 19:15 N 13 14.48 Overcast BKN008 OVC015 14.7 14.7 100% 76.05 0.0
01 18:55 N 15 9.66 Light Rain Fog/Mist BKN008 OVC023 14.9 14.9 17.5 14.8 100% 76.02 0.0 0.18 1.37
01 18:35 N 20 9.66 Light Rain Fog/Mist BKN008 OVC022 14.8 14.8 100% 76.02 0.0 0.15
01 18:15 N 17 G 33 6.44 Rain Fog/Mist BKN007 OVC014 15 15 100% 76 0.0 0.13
01 17:55 N 17 6.44 Light Rain Fog/Mist BKN008 OVC013 15.3 15.3 100% 75.95 0.0 0.3
01 17:35 N 17 4.83 Rain Fog/Mist BKN009 OVC014 15.4 15.4 100% 75.95 0.0 0.25
01 17:15 N 15 G 31 4.83 Heavy Rain Fog/Mist OVC009 15.6 15.6 100% 75.92 0.0 0.1
01 16:55 N 19 9.66 Light Rain Fog/Mist OVC008 15.8 15.8 100% 75.79 0.0
01 16:35 NE 15 16.09 Overcast OVC009 15.8 15.8 100% 75.77 0.0
01 16:15 NE 19 16.09 Overcast OVC008 15.8 15.8 100% 75.77 0.0
01 15:55 N 24 G 31 14.48 Light Rain OVC007 15.6 15.6 100% 75.79 0.0 0.15 0.89
01 15:35 N 22 G 31 11.27 Light Rain OVC007 15.7 15.7 100% 75.82 0.0 0.15
01 15:15 N 19 11.27 Light Rain BKN006 OVC015 15.8 15.8 100% 75.9 0.0 0.15
01 14:55 N 15 2.41 Thunderstorm Heavy Rain Fog/Mist BKN007 OVC036 15.7 15.7 100% 75.82 0.0 0.43
01 14:35 NW 19 G 28 9.66 Rain Fog/Mist Thunderstorm in Vicinity OVC007 15.9 15.9 100% 75.9 0.0 0.13
01 14:15 N 15 9.66 Rain Fog/Mist Thunderstorm in Vicinity OVC007 16.1 16.1 100% 75.79 0.0 0.08
01 13:55 N 20 8.05 Rain Fog/Mist OVC006 16.6 16.6 100% 75.84 0.0 0.3
01 13:35 N 15 4.83 Rain Fog/Mist Thunderstorm in Vicinity OVC007 16.9 16.9 100% 75.77 0.0 0.23
01 12:55 NE 15 16.09 Overcast OVC009 17.5 17.5 17.9 16.1 100% 75.74 0.0 2.24
01 12:35 NE 13 16.09 Overcast OVC008 17.8 17.8 100% 75.74 0.0
01 12:15 NE 17 G 30 16.09 Thunderstorm in Vicinity OVC007 17.6 17.6 100% 75.74 0.0
01 11:55 NE 13 G 30 6.44 Thunderstorm Light Rain Fog/Mist BKN005 OVC060 16.1 16.1 100% 75.77 0.0 0.41
01 11:35 NE 19 3.22 Rain Fog/Mist Thunderstorm in Vicinity OVC006 16.1 16.1 100% 75.9 0.0 0.28
01 11:15 N 11 8.05 Light Rain Fog/Mist OVC007 16.1 16.1 100% 76 0.0 0.1
01 10:55 NE 13 9.66 Light Rain Fog/Mist OVC007 16.2 16.2 100% 75.92 0.0 0.1
01 10:35 N 19 9.66 Light Rain Fog/Mist OVC006 16.1 16.1 100% 75.92 0.0 0.08
01 10:15 NE 17 9.66 Light Rain Fog/Mist OVC006 16.2 16.2 100% 75.92 0.0 0.05
01 09:55 N 20 4.83 Rain Fog/Mist BKN005 OVC075 16.2 16.2 100% 75.97 0.0 0.48 1.73
01 09:35 N 19 3.22 Heavy Rain Fog/Mist BKN005 OVC070 16.3 16.3 100% 76.02 0.0 0.38
01 09:15 N 22 6.44 Rain Fog/Mist OVC006 16.5 16.5 100% 76 0.0 0.13
01 08:55 NE 9 12.87 Overcast OVC006 16.4 16.4 100% 75.9 0.0 0.23
Date Time (cdt) Wind (kph) Vis. (km) Weather Sky Cond. Air Dwpt Max. Min. Relative Humidity Wind Chill (°C) Heat Index (°C) altimeter (cm) sea level (mb) 1 hr 3 hr 6 hr
6 hour
Temperature (ºC) Pressure Precipitation (cm)